Browsing mikocon's torrents (4764)

Category Name Link Size Date
Art - Games 6 │2D.G.F.│*自炊品[190516][HappyLambBarn] Lost Life (Ver.1.16) 83.0 MiB 2020-12-24 21:33 8 2 1150
Art - Games │2D.G.F.│[201224][太陽アンテナ] 神代イツキの選挙戦 459.1 MiB 2020-12-24 21:32 37 0 3906
Art - Games │2D.G.F.│[200418][Are!] 戦い中に時間を止めて戦隊ヒロインに淫乱薬物を注射してみる 278.7 MiB 2020-12-24 21:31 17 2 2092
Art - Games │2D.G.F.│[200108][チッコ] ワンダーM (Ver.2020-01-10) 1.7 GiB 2020-12-24 21:31 6 2 919
Art - Games │2D.G.F.│[201223][芝生セメント] 黄昏と雷業 1.3 GiB 2020-12-23 20:24 21 2 2134
Art - Games │2D.G.F.│[201221][NAGINATA SOFT] HERO'S PARTY R 334.7 MiB 2020-12-23 20:23 14 1 1853
Art - Games │2D.G.F.│[201218][moyasix] GO TO DUNGEON!! 246.0 MiB 2020-12-23 20:21 7 2 814
Art - Games │2D.G.F.│[201218][唐揚げトマト] Ridicule ~寝取って堕として嘲笑い~ 510.9 MiB 2020-12-23 20:21 11 2 1192
Art - Games 1 │2D.G.F.│[201217][さかくも] ROOM#204 44.7 MiB 2020-12-23 20:20 14 1 1260
Art - Games │2D.G.F.│[201203][異次元なす] まほう使いちゃんは犯されたい! 153.9 MiB 2020-12-23 20:19 7 1 713
Art - Games │2D.G.F.│[200624][夏夏夏軍曹お] けろふぇちRPG 244.9 MiB 2020-12-23 20:18 5 2 695
Art - Games │2D.G.F.│[201222][circle rin] フィーナHボイス with Hシーン増量パッチ 87.0 MiB 2020-12-23 06:21 20 2 1943
Art - Games │2D.G.F.│[201222][ベルゼブブ] コンビニ少女Z クレマお仕置きぱっち 1.2 GiB 2020-12-22 20:40 19 7 2398
Art - Games │2D.G.F.│[201222][妄想特急] パンドラの辞令 533.3 MiB 2020-12-22 20:39 13 2 2083
Art - Games │2D.G.F.│[190805][粘土人魚] Revenge of Princess Knight 騎士団長ユリスの王都奪還作戦 (Ver.2019-08-06) 123.4 MiB 2020-12-22 20:39 7 1 1181
Art - Games │2D.G.F.│[190530][ティシュトリ屋] Purgatory Emma's Castle Takeback Tactics [English Ver.] 264.2 MiB 2020-12-22 20:38 7 1 827
Art - Games │2D.G.F.│[161215][NormalNEET_Complex!] 未来からのキャットライン 376.6 MiB 2020-12-22 20:37 5 1 613
Art - Games │2D.G.F.│*自炊品[201202][Rulers] アサルトナース ~Angels in a spermcoat~ Karte2 713.6 MiB 2020-12-21 20:49 8 2 768
Art - Games │2D.G.F.│*自炊品[200826][夢底スタジオ] 洗脳×売春×経営シミュレーション学園 41.4 MiB 2020-12-21 20:48 15 2 1347
Art - Games 1 │2D.G.F.│*自炊品[190516][信馬鹿] 新説魔法少女+ (Ver.2019-12-21) 680.8 MiB 2020-12-21 20:47 6 2 825
Art - Games │2D.G.F.│[201221][Sawatex] おさわりガール 85.8 MiB 2020-12-21 20:46 17 1 1714
Art - Games │2D.G.F.│[201218][まぜ] NPC姦RPG ~オセリアの罪人~ 280.3 MiB 2020-12-21 20:45 10 2 1723
Art - Games │2D.G.F.│[201125][凱聖堂] むちフェチこれくしょん!DX 270.0 MiB 2020-12-21 20:45 7 0 1043
Art - Games │2D.G.F.│[201106][Genesis Arthangel] Perfect affection plan: Cassiopeia (Ver.2020-11-29/1.1) 148.7 MiB 2020-12-21 20:44 12 1 1061
Art - Games │2D.G.F.│[201219][Mugcat] 魔法少女ユリコ ~彼女の奥の手はオナニーブースト~ 224.7 MiB 2020-12-20 20:59 16 0 1991
Art - Games │2D.G.F.│[201219][プルート] 魔物ガチャ ~D.D.D~ (Ver.1.1) 1.6 GiB 2020-12-20 20:58 9 3 1374
Art - Games │2D.G.F.│[201219][キラキラ地下帝国] 天才魔法少女だけど巷で話題のトラップダンジョンも余裕っ!!! (Ver.2020-12-20/1.01) 601.2 MiB 2020-12-20 20:57 11 1 1808
Art - Games │2D.G.F.│[201214][谷奥の蛙] 魔女マリカと触手トラップダンジョン 497.4 MiB 2020-12-20 20:57 10 1 1181
Art - Games │2D.G.F.│[200919][しぼりたて 生] 精液吸収!半天使 510.3 MiB 2020-12-20 20:56 9 3 1616
Art - Games │2D.G.F.│[181028][PinkPeach] ~necromancy~エミリの逃亡 (Ver.1.06) 389.4 MiB 2020-12-19 21:27 10 1 1995
Art - Games │2D.G.F.│[201219][目隠し娘] 淫乱アルケミスト・リルフィ ~私、淫乱なんかじゃありません~ 1.6 GiB 2020-12-19 21:27 15 3 2586
Art - Games 1 │2D.G.F.│[201218][くろわし屋] 魔神の迷宮 139.5 MiB 2020-12-19 21:26 12 1 2055
Art - Games │2D.G.F.│[201213][めかぶ亭] 【AVG版】Magical Girl Bad End S1 259.2 MiB 2020-12-19 21:25 10 1 1384
Art - Games │2D.G.F.│[190515][墳丹吉] Momo Gets Laid 76.5 MiB 2020-12-19 21:25 11 1 1468
Art - Anime │2D.G.F.│[200808][きのこおにぎり] 1回300円 - ア○ールレーン 59.0 MiB 2020-12-19 21:24 10 1 1402
Art - Games │2D.G.F.│[160527][スミレ]僕と恋するポンコツアクマ。 すっごいえっち! Steam版 [CN-EN] 4.0 GiB 2020-12-19 19:18 6 3 770
Art - Games │2D.G.F.│[201218][capture1] サキュバス☆コネクト!! 1.1 GiB 2020-12-19 00:56 30 3 3809
Art - Games 3 │2D.G.F.│[201218][しめなわん] ロレーナと遺跡の国 ~銃と魔法のトレジャーハンター~ 1.2 GiB 2020-12-19 00:55 70 6 8177
Art - Games │2D.G.F.│[201216][KineticDog] 無限留年 175.9 MiB 2020-12-19 00:55 32 1 4073
Art - Games │2D.G.F.│[201216][RR研究会] Moon Reunion -状態異常耐性0の転生勇者がドレインされすぎるリアルタイムRPG- (Ver.2020-12-17/1.02) 2.9 GiB 2020-12-19 00:54 16 4 1549
Art - Games │2D.G.F.│[200920][苗木堂] 妖狐が転がりこんできた (Ver.2020-09-28/1.1.1) 134.7 MiB 2020-12-19 00:53 10 1 1397
Art - Games │2D.G.F.│[191119][有難うナス] ガールズとゴブリン 393.4 MiB 2020-12-19 00:52 5 1 901
Art - Games │2D.G.F.│[061027][チッコ] 闇と光のヴァルキリー 580.8 MiB 2020-12-19 00:51 4 1 847
Art - Anime │2D.G.F.│[050526][チッコ] ドラゴン・スレイブ 725.5 MiB 2020-12-19 00:50 7 2 1544
Art - Games │2D.G.F.│[201217][ぺぺろんちーの] ゴブリンの巣穴 patch.5 雌堕アップグレードデータ 845.5 MiB 2020-12-17 20:39 16 3 1985
Art - Games │2D.G.F.│[201215][ものつーる] よこしまサロン 651.4 MiB 2020-12-17 02:51 21 1 2195
Art - Games │2D.G.F.│[201212][スタジオねこキック] 女忍者 枫 754.7 MiB 2020-12-17 02:49 5 1 976
Art - Games │2D.G.F.│[201006][PsychoGameFan] Cyber Girl 1.0: Booting 120.1 MiB 2020-12-17 02:48 3 1 519
Art - Games 1 │2D.G.F.│[160111][Combin Ation] 生存者サラ2 第一章 -非人道な農場- 191.6 MiB 2020-12-17 02:47 8 2 619
Art - Anime │2D.G.F.│[200916][区画OTZ] ピクセルアニメ~Succubus (Ver.2020-12-13) 16.2 MiB 2020-12-17 02:46 12 1 1495
Art - Games │2D.G.F.│[201214][三代錆] 魔王城の隠居参謀 251.3 MiB 2020-12-15 20:32 26 3 4797
Art - Games │2D.G.F.│[191226][下学上達屋] 聖騎士様に憑依してビッチにおとしめるRPG 377.1 MiB 2020-12-15 20:31 6 3 1631
Art - Anime │2D.G.F.│[170526][第一実験室] 乙女tic綾 661.7 MiB 2020-12-14 20:52 3 1 876
Art - Anime │2D.G.F.│[201204][papers] ママサプリ ダメママ編 1.5 GiB 2020-12-14 20:51 19 4 8304
Art - Anime │2D.G.F.│[170204][第一実験室] 狩人の艶書 349.1 MiB 2020-12-14 20:49 3 0 750
Art - Games │2D.G.F.│[201210][瀧音MELO] パンダラクエスト 646.6 MiB 2020-12-13 23:50 35 2 3982
Art - Games │2D.G.F.│[200127][7センチ] 大穴デスゲーム -命の災厄- (Ver.2020-01-29/1.01) 262.9 MiB 2020-12-13 23:49 7 2 1323
Art - Games │2D.G.F.│[201212][鈴屋] 過去作品5タイトルの夫婦達が異世界に召喚されて乱交したりスワッピングしたりする話 514.9 MiB 2020-12-12 21:26 9 1 1304
Art - Games │2D.G.F.│[201116][ひろいんそふと] 勇者 (Lv.60)とシスタートラップ 177.2 MiB 2020-12-12 21:26 5 1 917
Art - Games │2D.G.F.│*自炊品[201127][POISON] 完堕ち×元ヤン妻 ~ごめんなさい。私、ムカつく後輩に肉オナホにされちゃったの~ Cracked by 2DJGAME 1.6 GiB 2020-12-12 19:43 32 0 6439
Art - Anime │2D.G.F.│*自炊品[200516][StudioEvilly] 教室でお尻 265.4 MiB 2020-12-12 00:50 11 1 3076
Art - Anime │2D.G.F.│*自炊品[200115][狂イ咲] 監禁少女・完全版 ~少女と汁男~ 4.5 GiB 2020-12-12 00:49 8 2 1479
Art - Anime │2D.G.F.│*自炊品[190824][ダンジエンジン] ゆめのまゆ~元気いっぱい弟と朝から晩までゆめみる性活 759.8 MiB 2020-12-12 00:48 2 3 715
Art - Anime │2D.G.F.│*自炊品[181020][ダンジエンジン] ShotaTube ~カンチョーで射●!?銭湯でア●ルセッ●スしてみたwwww~ 563.9 MiB 2020-12-12 00:47 3 2 736
Art - Anime │2D.G.F.│*自炊品[180518][ダンジエンジン] エロガキッ!少年男娼の3日間体験学習 ~ふつかめ~スマホ版 1.2 GiB 2020-12-12 00:46 2 4 625
Art - Anime │2D.G.F.│*自炊品[180318][ダンジエンジン] 失楽園-後日談-堕ちた少年のひとりアソビ 639.4 MiB 2020-12-12 00:45 2 0 646
Art - Anime │2D.G.F.│*自炊品[180220][ダンジエンジン] 失楽園-少年が見たもうひとつの楽園- 400.5 MiB 2020-12-12 00:44 0 1 646
Art - Anime │2D.G.F.│*自炊品[121122][いもけんぴ] 教師喰い 356.3 MiB 2020-12-12 00:43 2 1 996
Art - Anime │2D.G.F.│[200817][アトリエつばき] 志笈優香 (妹) 615.8 MiB 2020-12-12 00:42 10 3 1462
Art - Anime │2D.G.F.│[200810][アトリエつばき] 新梶 麻衣子 (娘) 851.6 MiB 2020-12-12 00:42 8 5 1558
Art - Anime │2D.G.F.│[200804][Studio34] 日暮れ後の神社で[エクストラ] 527.9 MiB 2020-12-12 00:41 1 2 729
Art - Anime 1 │2D.G.F.│[200719][Cwis] ドキドキはぁはぁ幼馴染お姉ちゃんの怪しいジュース 7.5 GiB 2020-12-12 00:40 8 4 2020
Art - Anime │2D.G.F.│[200718][ 水鉄炮] バーチャル 『キズOOO』AV感謝祭 4.5 GiB 2020-12-12 00:38 7 3 1604
Art - Anime │2D.G.F.│[200717][ぽこもぷれみあむ] 学園系過激リフレ 本日開店! 4.2 GiB 2020-12-12 00:37 5 5 1939
Art - Anime │2D.G.F.│[200712][えりんぎとろサーモン] 超絶!!つゆだくドットアニメパック! 1.8 GiB 2020-12-12 00:36 13 0 1397